sensor_id;sensor_type;location;lat;lon;timestamp;P1;durP1;ratioP1;P2;durP2;ratioP2
55461;SDS011;41327;45.102;20.624;2023-09-19T00:01:32;4.97;;;2.33;;
55461;SDS011;41327;45.102;20.624;2023-09-19T00:03:57;3.88;;;3.15;;
55461;SDS011;41327;45.102;20.624;2023-09-19T00:06:23;6.53;;;2.95;;
55461;SDS011;41327;45.102;20.624;2023-09-19T00:08:51;5.05;;;2.80;;
55461;SDS011;41327;45.102;20.624;2023-09-19T00:11:16;5.93;;;3.53;;
55461;SDS011;41327;45.102;20.624;2023-09-19T00:13:42;5.18;;;2.47;;
55461;SDS011;41327;45.102;20.624;2023-09-19T00:16:09;7.05;;;3.17;;
55461;SDS011;41327;45.102;20.624;2023-09-19T00:18:35;7.38;;;2.80;;
55461;SDS011;41327;45.102;20.624;2023-09-19T00:21:01;5.72;;;3.15;;
55461;SDS011;41327;45.102;20.624;2023-09-19T00:23:29;4.55;;;2.70;;
55461;SDS011;41327;45.102;20.624;2023-09-19T00:25:59;7.75;;;2.75;;
55461;SDS011;41327;45.102;20.624;2023-09-19T00:28:25;4.95;;;2.75;;
55461;SDS011;41327;45.102;20.624;2023-09-19T00:30:51;5.45;;;2.95;;
55461;SDS011;41327;45.102;20.624;2023-09-19T00:33:16;2.85;;;2.63;;
55461;SDS011;41327;45.102;20.624;2023-09-19T00:35:48;4.90;;;2.83;;
55461;SDS011;41327;45.102;20.624;2023-09-19T00:38:14;4.57;;;2.60;;
55461;SDS011;41327;45.102;20.624;2023-09-19T00:40:45;5.93;;;3.08;;
55461;SDS011;41327;45.102;20.624;2023-09-19T00:43:10;4.32;;;2.65;;
55461;SDS011;41327;45.102;20.624;2023-09-19T00:45:36;5.68;;;3.03;;
55461;SDS011;41327;45.102;20.624;2023-09-19T00:48:03;8.48;;;3.67;;
55461;SDS011;41327;45.102;20.624;2023-09-19T00:50:37;3.77;;;2.93;;
55461;SDS011;41327;45.102;20.624;2023-09-19T00:53:05;5.40;;;2.92;;
55461;SDS011;41327;45.102;20.624;2023-09-19T00:55:33;6.25;;;3.63;;
55461;SDS011;41327;45.102;20.624;2023-09-19T00:57:59;3.95;;;2.88;;
55461;SDS011;41327;45.102;20.624;2023-09-19T01:00:25;4.47;;;3.10;;
55461;SDS011;41327;45.102;20.624;2023-09-19T01:02:50;6.72;;;3.35;;
55461;SDS011;41327;45.102;20.624;2023-09-19T01:05:16;5.25;;;2.70;;
55461;SDS011;41327;45.102;20.624;2023-09-19T01:07:42;4.00;;;3.15;;
55461;SDS011;41327;45.102;20.624;2023-09-19T01:10:10;4.97;;;3.20;;
55461;SDS011;41327;45.102;20.624;2023-09-19T01:15:15;4.97;;;3.10;;
55461;SDS011;41327;45.102;20.624;2023-09-19T01:26:03;11.35;;;3.63;;
55461;SDS011;41327;45.102;20.624;2023-09-19T01:31:19;6.93;;;3.20;;
55461;SDS011;41327;45.102;20.624;2023-09-19T01:33:54;4.45;;;3.13;;
55461;SDS011;41327;45.102;20.624;2023-09-19T01:36:24;6.03;;;3.80;;
55461;SDS011;41327;45.102;20.624;2023-09-19T01:38:50;4.18;;;3.47;;
55461;SDS011;41327;45.102;20.624;2023-09-19T01:41:17;5.30;;;3.28;;
55461;SDS011;41327;45.102;20.624;2023-09-19T01:43:45;8.05;;;3.40;;
55461;SDS011;41327;45.102;20.624;2023-09-19T01:46:15;15.52;;;4.05;;
55461;SDS011;41327;45.102;20.624;2023-09-19T01:51:09;6.97;;;3.60;;
55461;SDS011;41327;45.102;20.624;2023-09-19T01:57:26;7.05;;;3.83;;
55461;SDS011;41327;45.102;20.624;2023-09-19T01:59:17;8.43;;;3.28;;
55461;SDS011;41327;45.102;20.624;2023-09-19T02:01:46;4.45;;;2.88;;
55461;SDS011;41327;45.102;20.624;2023-09-19T02:04:13;6.60;;;3.60;;
55461;SDS011;41327;45.102;20.624;2023-09-19T02:06:41;5.57;;;3.17;;
55461;SDS011;41327;45.102;20.624;2023-09-19T02:09:07;7.68;;;3.53;;
55461;SDS011;41327;45.102;20.624;2023-09-19T02:11:32;9.77;;;3.83;;
55461;SDS011;41327;45.102;20.624;2023-09-19T02:13:58;13.98;;;4.10;;
55461;SDS011;41327;45.102;20.624;2023-09-19T02:16:24;17.02;;;4.55;;
55461;SDS011;41327;45.102;20.624;2023-09-19T02:18:49;6.95;;;4.15;;
55461;SDS011;41327;45.102;20.624;2023-09-19T02:21:15;19.83;;;5.25;;
55461;SDS011;41327;45.102;20.624;2023-09-19T02:23:42;6.80;;;3.63;;
55461;SDS011;41327;45.102;20.624;2023-09-19T02:26:07;7.05;;;3.05;;
55461;SDS011;41327;45.102;20.624;2023-09-19T02:28:33;9.70;;;2.67;;
55461;SDS011;41327;45.102;20.624;2023-09-19T02:31:01;4.40;;;3.17;;
55461;SDS011;41327;45.102;20.624;2023-09-19T02:33:26;4.93;;;2.97;;
55461;SDS011;41327;45.102;20.624;2023-09-19T02:35:58;4.90;;;3.33;;
55461;SDS011;41327;45.102;20.624;2023-09-19T02:38:23;5.65;;;3.53;;
55461;SDS011;41327;45.102;20.624;2023-09-19T02:40:51;5.07;;;3.38;;
55461;SDS011;41327;45.102;20.624;2023-09-19T02:43:16;4.80;;;2.85;;
55461;SDS011;41327;45.102;20.624;2023-09-19T02:45:42;6.65;;;3.35;;
55461;SDS011;41327;45.102;20.624;2023-09-19T02:48:07;7.10;;;3.63;;
55461;SDS011;41327;45.102;20.624;2023-09-19T02:50:33;5.38;;;3.35;;
55461;SDS011;41327;45.102;20.624;2023-09-19T02:52:59;4.68;;;3.10;;
55461;SDS011;41327;45.102;20.624;2023-09-19T02:55:24;7.38;;;3.45;;
55461;SDS011;41327;45.102;20.624;2023-09-19T02:57:50;4.25;;;3.00;;
55461;SDS011;41327;45.102;20.624;2023-09-19T03:00:17;5.72;;;3.55;;
55461;SDS011;41327;45.102;20.624;2023-09-19T03:02:46;4.63;;;3.60;;
55461;SDS011;41327;45.102;20.624;2023-09-19T03:05:11;4.65;;;3.35;;
55461;SDS011;41327;45.102;20.624;2023-09-19T03:07:37;4.25;;;3.30;;
55461;SDS011;41327;45.102;20.624;2023-09-19T03:10:03;4.78;;;3.53;;
55461;SDS011;41327;45.102;20.624;2023-09-19T03:12:30;6.25;;;3.65;;
55461;SDS011;41327;45.102;20.624;2023-09-19T03:14:56;6.70;;;3.65;;
55461;SDS011;41327;45.102;20.624;2023-09-19T03:17:22;4.45;;;3.15;;
55461;SDS011;41327;45.102;20.624;2023-09-19T03:19:47;7.78;;;3.30;;
55461;SDS011;41327;45.102;20.624;2023-09-19T03:22:13;7.03;;;3.40;;
55461;SDS011;41327;45.102;20.624;2023-09-19T03:24:39;7.50;;;3.50;;
55461;SDS011;41327;45.102;20.624;2023-09-19T03:27:04;6.70;;;3.22;;
55461;SDS011;41327;45.102;20.624;2023-09-19T03:29:30;6.90;;;3.42;;
55461;SDS011;41327;45.102;20.624;2023-09-19T03:31:55;5.68;;;3.30;;
55461;SDS011;41327;45.102;20.624;2023-09-19T03:34:21;4.10;;;3.28;;
55461;SDS011;41327;45.102;20.624;2023-09-19T03:36:46;5.88;;;3.78;;
55461;SDS011;41327;45.102;20.624;2023-09-19T03:39:11;5.57;;;3.50;;
55461;SDS011;41327;45.102;20.624;2023-09-19T03:41:37;5.65;;;3.10;;
55461;SDS011;41327;45.102;20.624;2023-09-19T03:44:03;3.97;;;3.03;;
55461;SDS011;41327;45.102;20.624;2023-09-19T03:46:28;5.53;;;3.42;;
55461;SDS011;41327;45.102;20.624;2023-09-19T03:48:55;5.60;;;3.30;;
55461;SDS011;41327;45.102;20.624;2023-09-19T03:51:20;5.07;;;3.53;;
55461;SDS011;41327;45.102;20.624;2023-09-19T03:53:46;7.00;;;3.17;;
55461;SDS011;41327;45.102;20.624;2023-09-19T03:56:11;7.68;;;3.65;;
55461;SDS011;41327;45.102;20.624;2023-09-19T03:58:37;4.10;;;3.30;;
55461;SDS011;41327;45.102;20.624;2023-09-19T04:01:05;4.70;;;3.42;;
55461;SDS011;41327;45.102;20.624;2023-09-19T04:03:32;8.80;;;4.00;;
55461;SDS011;41327;45.102;20.624;2023-09-19T04:06:11;5.47;;;3.40;;
55461;SDS011;41327;45.102;20.624;2023-09-19T04:08:37;6.25;;;3.40;;
55461;SDS011;41327;45.102;20.624;2023-09-19T04:11:02;6.13;;;3.63;;
55461;SDS011;41327;45.102;20.624;2023-09-19T04:13:27;5.70;;;3.45;;
55461;SDS011;41327;45.102;20.624;2023-09-19T04:15:53;7.28;;;3.63;;
55461;SDS011;41327;45.102;20.624;2023-09-19T04:18:18;14.93;;;4.20;;
55461;SDS011;41327;45.102;20.624;2023-09-19T04:20:49;8.85;;;3.83;;
55461;SDS011;41327;45.102;20.624;2023-09-19T04:23:14;7.00;;;3.60;;
55461;SDS011;41327;45.102;20.624;2023-09-19T04:25:40;6.72;;;3.92;;
55461;SDS011;41327;45.102;20.624;2023-09-19T04:28:05;11.00;;;4.57;;
55461;SDS011;41327;45.102;20.624;2023-09-19T04:30:32;7.43;;;3.75;;
55461;SDS011;41327;45.102;20.624;2023-09-19T04:32:57;13.55;;;5.45;;
55461;SDS011;41327;45.102;20.624;2023-09-19T04:35:22;16.83;;;6.00;;
55461;SDS011;41327;45.102;20.624;2023-09-19T04:37:48;24.65;;;6.18;;
55461;SDS011;41327;45.102;20.624;2023-09-19T04:40:13;16.98;;;6.38;;
55461;SDS011;41327;45.102;20.624;2023-09-19T04:42:45;14.82;;;5.95;;
55461;SDS011;41327;45.102;20.624;2023-09-19T04:45:11;11.40;;;6.07;;
55461;SDS011;41327;45.102;20.624;2023-09-19T04:47:37;35.70;;;5.88;;
55461;SDS011;41327;45.102;20.624;2023-09-19T04:50:06;15.85;;;6.15;;
55461;SDS011;41327;45.102;20.624;2023-09-19T04:52:31;17.70;;;6.35;;
55461;SDS011;41327;45.102;20.624;2023-09-19T04:54:57;19.30;;;5.40;;
55461;SDS011;41327;45.102;20.624;2023-09-19T04:57:23;24.52;;;5.40;;
55461;SDS011;41327;45.102;20.624;2023-09-19T04:59:48;19.05;;;6.13;;
55461;SDS011;41327;45.102;20.624;2023-09-19T05:02:14;13.82;;;5.32;;
55461;SDS011;41327;45.102;20.624;2023-09-19T05:04:39;25.42;;;7.43;;
55461;SDS011;41327;45.102;20.624;2023-09-19T05:07:04;22.80;;;5.67;;
55461;SDS011;41327;45.102;20.624;2023-09-19T05:09:30;23.30;;;6.13;;
55461;SDS011;41327;45.102;20.624;2023-09-19T05:11:55;22.08;;;6.50;;
55461;SDS011;41327;45.102;20.624;2023-09-19T05:14:21;16.23;;;6.35;;
55461;SDS011;41327;45.102;20.624;2023-09-19T05:16:47;18.02;;;6.05;;
55461;SDS011;41327;45.102;20.624;2023-09-19T05:19:13;26.40;;;8.40;;
55461;SDS011;41327;45.102;20.624;2023-09-19T05:21:38;25.42;;;7.18;;
55461;SDS011;41327;45.102;20.624;2023-09-19T05:24:06;24.17;;;6.68;;
55461;SDS011;41327;45.102;20.624;2023-09-19T05:26:32;15.40;;;5.95;;
55461;SDS011;41327;45.102;20.624;2023-09-19T05:28:57;8.15;;;4.78;;
55461;SDS011;41327;45.102;20.624;2023-09-19T05:31:24;16.67;;;5.95;;
55461;SDS011;41327;45.102;20.624;2023-09-19T05:33:51;20.75;;;5.90;;
55461;SDS011;41327;45.102;20.624;2023-09-19T05:36:17;22.50;;;7.28;;
55461;SDS011;41327;45.102;20.624;2023-09-19T05:38:42;19.15;;;6.40;;
55461;SDS011;41327;45.102;20.624;2023-09-19T05:41:09;17.58;;;5.13;;
55461;SDS011;41327;45.102;20.624;2023-09-19T05:43:39;17.60;;;5.35;;
55461;SDS011;41327;45.102;20.624;2023-09-19T05:46:06;20.60;;;5.97;;
55461;SDS011;41327;45.102;20.624;2023-09-19T05:48:33;38.72;;;7.75;;
55461;SDS011;41327;45.102;20.624;2023-09-19T05:50:58;22.33;;;6.68;;
55461;SDS011;41327;45.102;20.624;2023-09-19T05:53:24;25.45;;;5.70;;
55461;SDS011;41327;45.102;20.624;2023-09-19T05:55:50;19.92;;;6.18;;
55461;SDS011;41327;45.102;20.624;2023-09-19T05:58:18;17.20;;;6.43;;
55461;SDS011;41327;45.102;20.624;2023-09-19T06:00:45;19.52;;;5.72;;
55461;SDS011;41327;45.102;20.624;2023-09-19T06:03:12;28.35;;;5.95;;
55461;SDS011;41327;45.102;20.624;2023-09-19T06:05:38;21.60;;;6.00;;
55461;SDS011;41327;45.102;20.624;2023-09-19T06:08:04;27.65;;;6.63;;
55461;SDS011;41327;45.102;20.624;2023-09-19T06:10:33;28.52;;;5.97;;
55461;SDS011;41327;45.102;20.624;2023-09-19T06:12:59;29.73;;;6.93;;
55461;SDS011;41327;45.102;20.624;2023-09-19T06:15:25;21.67;;;5.82;;
55461;SDS011;41327;45.102;20.624;2023-09-19T06:17:52;18.40;;;5.63;;
55461;SDS011;41327;45.102;20.624;2023-09-19T06:20:22;11.25;;;3.38;;
55461;SDS011;41327;45.102;20.624;2023-09-19T06:22:48;18.77;;;6.93;;
55461;SDS011;41327;45.102;20.624;2023-09-19T06:25:14;21.52;;;4.78;;
55461;SDS011;41327;45.102;20.624;2023-09-19T06:27:45;15.50;;;4.35;;
55461;SDS011;41327;45.102;20.624;2023-09-19T06:30:11;9.38;;;4.18;;
55461;SDS011;41327;45.102;20.624;2023-09-19T06:32:36;10.00;;;3.72;;
55461;SDS011;41327;45.102;20.624;2023-09-19T06:35:02;11.27;;;3.85;;
55461;SDS011;41327;45.102;20.624;2023-09-19T06:37:28;16.42;;;4.15;;
55461;SDS011;41327;45.102;20.624;2023-09-19T06:39:53;12.02;;;4.10;;
55461;SDS011;41327;45.102;20.624;2023-09-19T06:42:19;8.82;;;4.00;;
55461;SDS011;41327;45.102;20.624;2023-09-19T06:44:44;10.70;;;4.65;;
55461;SDS011;41327;45.102;20.624;2023-09-19T06:47:10;25.25;;;5.20;;
55461;SDS011;41327;45.102;20.624;2023-09-19T06:49:37;20.00;;;4.82;;
55461;SDS011;41327;45.102;20.624;2023-09-19T06:52:03;18.88;;;5.10;;
55461;SDS011;41327;45.102;20.624;2023-09-19T06:54:29;7.05;;;4.47;;
55461;SDS011;41327;45.102;20.624;2023-09-19T06:57:15;15.98;;;5.97;;
55461;SDS011;41327;45.102;20.624;2023-09-19T06:59:41;21.42;;;4.95;;
55461;SDS011;41327;45.102;20.624;2023-09-19T07:02:07;16.85;;;5.05;;
55461;SDS011;41327;45.102;20.624;2023-09-19T07:04:33;23.25;;;5.90;;
55461;SDS011;41327;45.102;20.624;2023-09-19T07:06:58;17.50;;;4.90;;
55461;SDS011;41327;45.102;20.624;2023-09-19T07:09:24;17.60;;;4.57;;
55461;SDS011;41327;45.102;20.624;2023-09-19T07:11:52;8.23;;;3.83;;
55461;SDS011;41327;45.102;20.624;2023-09-19T07:14:18;9.25;;;3.65;;
55461;SDS011;41327;45.102;20.624;2023-09-19T07:16:44;6.78;;;3.35;;
55461;SDS011;41327;45.102;20.624;2023-09-19T07:19:10;8.82;;;4.40;;
55461;SDS011;41327;45.102;20.624;2023-09-19T07:21:35;12.40;;;5.10;;
55461;SDS011;41327;45.102;20.624;2023-09-19T07:24:01;12.27;;;4.45;;
55461;SDS011;41327;45.102;20.624;2023-09-19T07:26:28;15.32;;;4.50;;
55461;SDS011;41327;45.102;20.624;2023-09-19T07:28:53;11.60;;;4.38;;
55461;SDS011;41327;45.102;20.624;2023-09-19T07:31:19;10.88;;;4.40;;
55461;SDS011;41327;45.102;20.624;2023-09-19T07:33:44;10.25;;;3.38;;
55461;SDS011;41327;45.102;20.624;2023-09-19T07:36:10;4.63;;;3.50;;
55461;SDS011;41327;45.102;20.624;2023-09-19T07:38:36;7.90;;;3.60;;
55461;SDS011;41327;45.102;20.624;2023-09-19T07:41:01;6.15;;;3.40;;
55461;SDS011;41327;45.102;20.624;2023-09-19T07:43:27;4.55;;;3.63;;
55461;SDS011;41327;45.102;20.624;2023-09-19T07:45:53;9.77;;;3.30;;
55461;SDS011;41327;45.102;20.624;2023-09-19T07:48:18;4.15;;;3.10;;
55461;SDS011;41327;45.102;20.624;2023-09-19T07:50:43;6.97;;;3.40;;
55461;SDS011;41327;45.102;20.624;2023-09-19T07:53:09;9.35;;;3.85;;
55461;SDS011;41327;45.102;20.624;2023-09-19T07:55:34;11.57;;;4.20;;
55461;SDS011;41327;45.102;20.624;2023-09-19T07:58:00;12.15;;;4.30;;
55461;SDS011;41327;45.102;20.624;2023-09-19T08:00:25;7.40;;;3.83;;
55461;SDS011;41327;45.102;20.624;2023-09-19T08:02:51;10.63;;;3.55;;
55461;SDS011;41327;45.102;20.624;2023-09-19T08:05:17;12.45;;;3.88;;
55461;SDS011;41327;45.102;20.624;2023-09-19T08:07:46;7.32;;;3.53;;
55461;SDS011;41327;45.102;20.624;2023-09-19T08:10:14;7.97;;;3.60;;
55461;SDS011;41327;45.102;20.624;2023-09-19T08:12:41;18.70;;;6.10;;
55461;SDS011;41327;45.102;20.624;2023-09-19T08:15:17;10.98;;;3.65;;
55461;SDS011;41327;45.102;20.624;2023-09-19T08:17:42;10.77;;;3.90;;
55461;SDS011;41327;45.102;20.624;2023-09-19T08:20:08;8.48;;;3.88;;
55461;SDS011;41327;45.102;20.624;2023-09-19T08:22:40;6.20;;;4.00;;
55461;SDS011;41327;45.102;20.624;2023-09-19T08:25:06;5.13;;;3.25;;
55461;SDS011;41327;45.102;20.624;2023-09-19T08:27:32;7.00;;;4.30;;
55461;SDS011;41327;45.102;20.624;2023-09-19T08:30:01;6.55;;;4.03;;
55461;SDS011;41327;45.102;20.624;2023-09-19T08:32:28;6.43;;;3.92;;
55461;SDS011;41327;45.102;20.624;2023-09-19T08:34:53;7.30;;;3.97;;
55461;SDS011;41327;45.102;20.624;2023-09-19T08:37:19;6.13;;;3.60;;
55461;SDS011;41327;45.102;20.624;2023-09-19T08:39:44;10.10;;;4.68;;
55461;SDS011;41327;45.102;20.624;2023-09-19T08:42:09;5.40;;;3.70;;
55461;SDS011;41327;45.102;20.624;2023-09-19T08:44:36;9.05;;;3.75;;
55461;SDS011;41327;45.102;20.624;2023-09-19T08:47:09;13.68;;;4.07;;
55461;SDS011;41327;45.102;20.624;2023-09-19T08:52:28;8.45;;;4.25;;
55461;SDS011;41327;45.102;20.624;2023-09-19T08:54:57;8.15;;;4.20;;
55461;SDS011;41327;45.102;20.624;2023-09-19T08:57:24;11.48;;;5.18;;
55461;SDS011;41327;45.102;20.624;2023-09-19T08:59:50;8.68;;;4.40;;
55461;SDS011;41327;45.102;20.624;2023-09-19T09:02:16;11.93;;;4.63;;
55461;SDS011;41327;45.102;20.624;2023-09-19T09:04:44;15.07;;;5.43;;
55461;SDS011;41327;45.102;20.624;2023-09-19T09:07:13;9.27;;;4.25;;
55461;SDS011;41327;45.102;20.624;2023-09-19T09:09:39;7.07;;;3.80;;
55461;SDS011;41327;45.102;20.624;2023-09-19T09:12:11;12.98;;;4.22;;
55461;SDS011;41327;45.102;20.624;2023-09-19T09:14:37;13.07;;;4.60;;
55461;SDS011;41327;45.102;20.624;2023-09-19T09:17:03;7.68;;;3.53;;
55461;SDS011;41327;45.102;20.624;2023-09-19T09:19:29;13.98;;;5.35;;
55461;SDS011;41327;45.102;20.624;2023-09-19T09:22:05;11.75;;;4.50;;
55461;SDS011;41327;45.102;20.624;2023-09-19T09:24:31;10.55;;;4.97;;
55461;SDS011;41327;45.102;20.624;2023-09-19T09:26:59;6.43;;;4.03;;
55461;SDS011;41327;45.102;20.624;2023-09-19T09:29:45;6.35;;;4.22;;
55461;SDS011;41327;45.102;20.624;2023-09-19T09:32:21;8.80;;;4.17;;
55461;SDS011;41327;45.102;20.624;2023-09-19T09:34:48;7.28;;;4.07;;
55461;SDS011;41327;45.102;20.624;2023-09-19T09:37:14;7.55;;;3.88;;
55461;SDS011;41327;45.102;20.624;2023-09-19T09:39:40;10.77;;;4.60;;
55461;SDS011;41327;45.102;20.624;2023-09-19T09:42:28;10.40;;;4.70;;
55461;SDS011;41327;45.102;20.624;2023-09-19T09:45:29;10.45;;;3.80;;
55461;SDS011;41327;45.102;20.624;2023-09-19T09:48:08;10.68;;;4.50;;
55461;SDS011;41327;45.102;20.624;2023-09-19T09:50:47;9.77;;;4.15;;
55461;SDS011;41327;45.102;20.624;2023-09-19T09:53:27;8.77;;;4.55;;
55461;SDS011;41327;45.102;20.624;2023-09-19T09:58:37;20.77;;;6.20;;
55461;SDS011;41327;45.102;20.624;2023-09-19T10:01:05;13.40;;;4.65;;
55461;SDS011;41327;45.102;20.624;2023-09-19T10:03:40;11.32;;;4.43;;
55461;SDS011;41327;45.102;20.624;2023-09-19T10:06:11;8.77;;;4.93;;
55461;SDS011;41327;45.102;20.624;2023-09-19T10:11:49;13.13;;;4.82;;
55461;SDS011;41327;45.102;20.624;2023-09-19T10:14:26;8.77;;;4.93;;
55461;SDS011;41327;45.102;20.624;2023-09-19T10:16:56;6.82;;;4.80;;
55461;SDS011;41327;45.102;20.624;2023-09-19T10:19:30;6.45;;;4.32;;
55461;SDS011;41327;45.102;20.624;2023-09-19T10:21:59;9.98;;;4.95;;
55461;SDS011;41327;45.102;20.624;2023-09-19T10:24:25;8.68;;;5.60;;
55461;SDS011;41327;45.102;20.624;2023-09-19T10:26:52;8.85;;;4.30;;
55461;SDS011;41327;45.102;20.624;2023-09-19T10:29:19;14.48;;;7.72;;
55461;SDS011;41327;45.102;20.624;2023-09-19T10:31:46;6.70;;;4.68;;
55461;SDS011;41327;45.102;20.624;2023-09-19T10:34:14;7.55;;;4.80;;
55461;SDS011;41327;45.102;20.624;2023-09-19T10:36:39;9.48;;;6.97;;
55461;SDS011;41327;45.102;20.624;2023-09-19T10:39:10;9.05;;;4.78;;
55461;SDS011;41327;45.102;20.624;2023-09-19T10:41:37;6.53;;;4.53;;
55461;SDS011;41327;45.102;20.624;2023-09-19T10:44:03;10.57;;;4.95;;
55461;SDS011;41327;45.102;20.624;2023-09-19T10:46:30;14.57;;;5.75;;
55461;SDS011;41327;45.102;20.624;2023-09-19T10:49:00;7.38;;;3.85;;
55461;SDS011;41327;45.102;20.624;2023-09-19T10:51:25;8.38;;;4.35;;
55461;SDS011;41327;45.102;20.624;2023-09-19T10:54:01;9.23;;;4.10;;
55461;SDS011;41327;45.102;20.624;2023-09-19T10:56:36;7.63;;;4.78;;
55461;SDS011;41327;45.102;20.624;2023-09-19T10:59:10;8.15;;;3.97;;
55461;SDS011;41327;45.102;20.624;2023-09-19T11:01:48;7.93;;;3.83;;
55461;SDS011;41327;45.102;20.624;2023-09-19T11:07:13;15.15;;;4.78;;
55461;SDS011;41327;45.102;20.624;2023-09-19T11:09:54;13.75;;;4.78;;
55461;SDS011;41327;45.102;20.624;2023-09-19T11:15:00;10.13;;;4.35;;
55461;SDS011;41327;45.102;20.624;2023-09-19T11:17:30;12.43;;;4.60;;
55461;SDS011;41327;45.102;20.624;2023-09-19T11:30:38;10.30;;;4.72;;
55461;SDS011;41327;45.102;20.624;2023-09-19T11:33:18;16.98;;;5.32;;
55461;SDS011;41327;45.102;20.624;2023-09-19T11:36:08;8.88;;;4.72;;
55461;SDS011;41327;45.102;20.624;2023-09-19T11:46:12;12.18;;;5.57;;
55461;SDS011;41327;45.102;20.624;2023-09-19T11:48:41;19.45;;;5.30;;
55461;SDS011;41327;45.102;20.624;2023-09-19T11:51:14;11.95;;;4.97;;
55461;SDS011;41327;45.102;20.624;2023-09-19T11:53:55;11.80;;;4.70;;
55461;SDS011;41327;45.102;20.624;2023-09-19T11:56:21;7.15;;;4.95;;
55461;SDS011;41327;45.102;20.624;2023-09-19T11:58:49;10.15;;;4.60;;
55461;SDS011;41327;45.102;20.624;2023-09-19T12:01:18;8.98;;;4.20;;
55461;SDS011;41327;45.102;20.624;2023-09-19T12:03:47;11.05;;;5.22;;
55461;SDS011;41327;45.102;20.624;2023-09-19T12:06:15;10.02;;;5.10;;
55461;SDS011;41327;45.102;20.624;2023-09-19T12:08:42;12.32;;;6.13;;
55461;SDS011;41327;45.102;20.624;2023-09-19T12:11:15;10.88;;;4.45;;
55461;SDS011;41327;45.102;20.624;2023-09-19T12:13:44;10.35;;;4.40;;
55461;SDS011;41327;45.102;20.624;2023-09-19T12:16:13;13.25;;;5.93;;
55461;SDS011;41327;45.102;20.624;2023-09-19T12:18:40;15.60;;;5.53;;
55461;SDS011;41327;45.102;20.624;2023-09-19T12:21:08;16.33;;;5.75;;
55461;SDS011;41327;45.102;20.624;2023-09-19T12:23:37;11.85;;;5.43;;
55461;SDS011;41327;45.102;20.624;2023-09-19T12:26:06;8.88;;;5.05;;
55461;SDS011;41327;45.102;20.624;2023-09-19T12:28:40;8.25;;;4.93;;
55461;SDS011;41327;45.102;20.624;2023-09-19T12:31:07;8.02;;;5.57;;
55461;SDS011;41327;45.102;20.624;2023-09-19T12:33:34;11.10;;;5.70;;
55461;SDS011;41327;45.102;20.624;2023-09-19T12:36:18;11.25;;;5.63;;
55461;SDS011;41327;45.102;20.624;2023-09-19T12:38:47;13.05;;;5.47;;
55461;SDS011;41327;45.102;20.624;2023-09-19T12:41:13;10.25;;;5.45;;
55461;SDS011;41327;45.102;20.624;2023-09-19T12:43:39;9.82;;;5.38;;
55461;SDS011;41327;45.102;20.624;2023-09-19T12:46:07;11.82;;;5.30;;
55461;SDS011;41327;45.102;20.624;2023-09-19T12:48:32;8.65;;;5.22;;
55461;SDS011;41327;45.102;20.624;2023-09-19T12:51:03;15.68;;;5.80;;
55461;SDS011;41327;45.102;20.624;2023-09-19T12:53:34;11.63;;;5.55;;
55461;SDS011;41327;45.102;20.624;2023-09-19T12:56:03;13.02;;;5.85;;
55461;SDS011;41327;45.102;20.624;2023-09-19T12:58:34;12.80;;;5.80;;
55461;SDS011;41327;45.102;20.624;2023-09-19T13:01:00;12.73;;;5.40;;
55461;SDS011;41327;45.102;20.624;2023-09-19T13:03:27;11.95;;;5.10;;
55461;SDS011;41327;45.102;20.624;2023-09-19T13:06:01;10.35;;;5.70;;
55461;SDS011;41327;45.102;20.624;2023-09-19T13:11:09;11.38;;;5.20;;
55461;SDS011;41327;45.102;20.624;2023-09-19T13:13:38;8.95;;;4.68;;
55461;SDS011;41327;45.102;20.624;2023-09-19T13:16:04;10.27;;;5.75;;
55461;SDS011;41327;45.102;20.624;2023-09-19T13:18:54;13.65;;;5.28;;
55461;SDS011;41327;45.102;20.624;2023-09-19T13:21:30;15.27;;;5.07;;
55461;SDS011;41327;45.102;20.624;2023-09-19T13:26:46;6.18;;;4.47;;
55461;SDS011;41327;45.102;20.624;2023-09-19T13:29:12;13.38;;;5.18;;
55461;SDS011;41327;45.102;20.624;2023-09-19T13:31:45;9.63;;;4.78;;
55461;SDS011;41327;45.102;20.624;2023-09-19T13:34:10;7.78;;;4.38;;
55461;SDS011;41327;45.102;20.624;2023-09-19T13:36:36;12.77;;;4.82;;
55461;SDS011;41327;45.102;20.624;2023-09-19T13:39:02;16.67;;;6.68;;
55461;SDS011;41327;45.102;20.624;2023-09-19T13:41:30;11.68;;;5.50;;
55461;SDS011;41327;45.102;20.624;2023-09-19T13:43:56;8.73;;;5.03;;
55461;SDS011;41327;45.102;20.624;2023-09-19T13:46:22;18.98;;;5.53;;
55461;SDS011;41327;45.102;20.624;2023-09-19T13:48:51;13.98;;;5.50;;
55461;SDS011;41327;45.102;20.624;2023-09-19T13:51:17;13.40;;;4.63;;
55461;SDS011;41327;45.102;20.624;2023-09-19T13:53:44;12.23;;;4.05;;
55461;SDS011;41327;45.102;20.624;2023-09-19T13:56:09;9.38;;;4.43;;
55461;SDS011;41327;45.102;20.624;2023-09-19T13:58:34;11.50;;;5.05;;
55461;SDS011;41327;45.102;20.624;2023-09-19T14:01:00;8.02;;;3.50;;
55461;SDS011;41327;45.102;20.624;2023-09-19T14:03:25;15.05;;;2.80;;
55461;SDS011;41327;45.102;20.624;2023-09-19T14:05:53;9.82;;;2.78;;
55461;SDS011;41327;45.102;20.624;2023-09-19T14:08:18;7.93;;;3.25;;
55461;SDS011;41327;45.102;20.624;2023-09-19T14:10:44;9.80;;;3.25;;
55461;SDS011;41327;45.102;20.624;2023-09-19T14:13:09;10.57;;;3.63;;
55461;SDS011;41327;45.102;20.624;2023-09-19T14:15:38;13.98;;;3.72;;
55461;SDS011;41327;45.102;20.624;2023-09-19T14:18:04;15.45;;;3.35;;
55461;SDS011;41327;45.102;20.624;2023-09-19T14:20:29;14.70;;;4.03;;
55461;SDS011;41327;45.102;20.624;2023-09-19T14:22:56;13.43;;;4.07;;
55461;SDS011;41327;45.102;20.624;2023-09-19T14:25:23;11.63;;;3.08;;
55461;SDS011;41327;45.102;20.624;2023-09-19T14:27:49;11.07;;;2.85;;
55461;SDS011;41327;45.102;20.624;2023-09-19T14:30:15;7.40;;;2.83;;
55461;SDS011;41327;45.102;20.624;2023-09-19T14:32:40;9.45;;;3.00;;
55461;SDS011;41327;45.102;20.624;2023-09-19T14:35:06;11.80;;;2.78;;
55461;SDS011;41327;45.102;20.624;2023-09-19T14:37:32;9.68;;;2.95;;
55461;SDS011;41327;45.102;20.624;2023-09-19T14:39:57;9.95;;;3.45;;
55461;SDS011;41327;45.102;20.624;2023-09-19T14:42:23;12.85;;;3.38;;
55461;SDS011;41327;45.102;20.624;2023-09-19T14:44:48;8.93;;;3.40;;
55461;SDS011;41327;45.102;20.624;2023-09-19T14:47:15;10.27;;;3.35;;
55461;SDS011;41327;45.102;20.624;2023-09-19T14:49:41;10.43;;;3.38;;
55461;SDS011;41327;45.102;20.624;2023-09-19T14:52:07;7.40;;;2.67;;
55461;SDS011;41327;45.102;20.624;2023-09-19T14:54:33;9.52;;;2.45;;
55461;SDS011;41327;45.102;20.624;2023-09-19T14:56:59;5.30;;;2.22;;
55461;SDS011;41327;45.102;20.624;2023-09-19T14:59:32;5.97;;;2.25;;
55461;SDS011;41327;45.102;20.624;2023-09-19T15:01:59;9.48;;;2.45;;
55461;SDS011;41327;45.102;20.624;2023-09-19T15:04:24;5.63;;;2.80;;
55461;SDS011;41327;45.102;20.624;2023-09-19T15:06:50;10.47;;;2.77;;
55461;SDS011;41327;45.102;20.624;2023-09-19T15:09:16;9.80;;;2.85;;
55461;SDS011;41327;45.102;20.624;2023-09-19T15:11:44;9.15;;;3.00;;
55461;SDS011;41327;45.102;20.624;2023-09-19T15:14:09;9.48;;;2.70;;
55461;SDS011;41327;45.102;20.624;2023-09-19T15:16:34;7.50;;;2.50;;
55461;SDS011;41327;45.102;20.624;2023-09-19T15:19:00;5.57;;;2.65;;
55461;SDS011;41327;45.102;20.624;2023-09-19T15:21:26;7.85;;;2.20;;
55461;SDS011;41327;45.102;20.624;2023-09-19T15:23:51;11.02;;;3.33;;
55461;SDS011;41327;45.102;20.624;2023-09-19T15:26:16;6.32;;;2.03;;
55461;SDS011;41327;45.102;20.624;2023-09-19T15:28:47;6.10;;;1.83;;